Time;durP1;ratioP1;P1;durP2;ratioP2;P2;SDS_P1;SDS_P2;PMS_P1;PMS_P2;Temp;Humidity;BMP_temperature;BMP_pressure;BME280_temperature;BME280_humidity;BME280_pressure;Samples;Min_cycle;Max_cycle;Signal;HPM_P1;HPM_P2
2023/05/27 00:00:25;;;;;;;6.22;4.70;;;;;;;18.49;99.29;99696.16;5120590;28;20050;-64
2023/05/27 00:02:51;;;;;;;6.80;4.75;;;;;;;18.55;99.78;99704.38;5121130;28;20313;-64
2023/05/27 00:05:17;;;;;;;6.97;4.82;;;;;;;18.50;100.00;99700.47;5121358;28;20073;-64
2023/05/27 00:07:42;;;;;;;5.90;4.65;;;;;;;18.43;99.90;99696.19;5123341;28;20341;-64
2023/05/27 00:10:08;;;;;;;5.32;4.68;;;;;;;18.40;99.97;99701.97;5122218;28;20047;-64
2023/05/27 00:12:33;;;;;;;4.75;4.28;;;;;;;18.35;99.99;99699.94;5121300;28;20073;-64
2023/05/27 00:14:59;;;;;;;7.80;5.22;;;;;;;18.35;100.00;99705.28;5118637;27;20045;-64
2023/05/27 00:17:25;;;;;;;6.65;4.93;;;;;;;18.33;100.00;99696.63;5120867;28;20031;-64
2023/05/27 00:19:51;;;;;;;5.65;4.35;;;;;;;18.25;100.00;99699.56;5119715;28;20379;-64
2023/05/27 00:22:17;;;;;;;6.82;4.38;;;;;;;18.22;100.00;99696.50;5123705;27;20035;-64
2023/05/27 00:24:42;;;;;;;4.78;4.22;;;;;;;18.21;100.00;99695.66;5120703;28;20405;-64
2023/05/27 00:27:10;;;;;;;4.88;4.05;;;;;;;18.18;100.00;99696.91;5126008;28;20038;-64
2023/05/27 00:29:36;;;;;;;6.63;4.07;;;;;;;18.12;100.00;99687.03;5123411;28;20036;-64
2023/05/27 00:32:03;;;;;;;7.90;4.65;;;;;;;18.14;100.00;99674.25;5125779;28;20038;-64
2023/05/27 00:34:29;;;;;;;6.88;4.68;;;;;;;17.99;100.00;99657.63;5121424;28;20063;-64
2023/05/27 00:36:54;;;;;;;6.53;4.30;;;;;;;18.11;100.00;99668.50;5121904;27;20031;-64
2023/05/27 00:39:20;;;;;;;6.25;4.13;;;;;;;18.13;100.00;99669.94;5127843;27;20042;-64
2023/05/27 00:41:49;;;;;;;5.63;4.25;;;;;;;18.11;100.00;99668.50;5124182;27;20190;-65
2023/05/27 00:44:15;;;;;;;5.47;4.35;;;;;;;18.07;100.00;99660.06;5127143;27;20027;-64
2023/05/27 00:46:40;;;;;;;6.15;4.60;;;;;;;18.10;100.00;99669.53;5127048;27;20050;-64
2023/05/27 00:49:06;;;;;;;6.38;4.57;;;;;;;17.96;100.00;99670.63;5125611;27;20163;-64
2023/05/27 00:51:31;;;;;;;8.50;4.20;;;;;;;17.97;99.46;99670.41;5129223;27;20040;-64
2023/05/27 00:53:57;;;;;;;5.38;4.20;;;;;;;17.94;98.62;99670.84;5124951;27;20039;-64
2023/05/27 00:56:22;;;;;;;5.15;4.28;;;;;;;17.99;97.34;99667.50;5125348;27;20036;-64
2023/05/27 00:58:48;;;;;;;4.47;3.58;;;;;;;17.81;97.59;99677.06;5125162;27;20079;-64
2023/05/27 01:01:14;;;;;;;4.43;4.03;;;;;;;17.62;98.95;99693.09;5124512;27;20035;-64
2023/05/27 01:03:41;;;;;;;4.72;3.85;;;;;;;17.65;98.88;99685.47;5123721;27;20298;-64
2023/05/27 01:06:07;;;;;;;4.40;3.97;;;;;;;17.76;98.39;99687.56;5123676;27;20024;-64
2023/05/27 01:08:40;;;;;;;4.93;3.88;;;;;;;17.90;97.13;99683.00;5126002;27;20080;-64
2023/05/27 01:11:09;;;;;;;5.43;3.83;;;;;;;17.69;97.59;99684.09;5125268;27;20040;-64
2023/05/27 01:13:36;;;;;;;6.43;4.07;;;;;;;17.70;97.52;99685.72;5125471;27;20204;-64
2023/05/27 01:16:09;;;;;;;5.60;4.03;;;;;;;17.93;96.11;99681.75;5125575;27;20039;-64
2023/05/27 01:18:35;;;;;;;4.88;3.58;;;;;;;17.77;97.23;99685.72;5122061;27;20039;-64
2023/05/27 01:21:07;;;;;;;4.95;3.85;;;;;;;17.95;96.54;99672.47;5122918;27;20038;-64
2023/05/27 01:23:33;;;;;;;6.60;4.10;;;;;;;18.03;95.92;99679.44;5127706;27;20051;-64
2023/05/27 01:25:58;;;;;;;8.50;4.28;;;;;;;17.96;96.54;99682.16;5124615;27;20035;-64
2023/05/27 01:28:24;;;;;;;5.05;4.18;;;;;;;18.09;95.45;99676.75;5126883;27;20037;-64
2023/05/27 01:30:54;;;;;;;7.20;4.45;;;;;;;18.18;94.52;99677.34;5124582;27;20080;-64
2023/05/27 01:33:25;;;;;;;6.43;3.85;;;;;;;18.14;94.12;99671.56;5121973;27;20031;-64
2023/05/27 01:35:59;;;;;;;4.63;4.22;;;;;;;18.18;94.20;99680.00;5125756;27;20059;-64
2023/05/27 01:38:28;;;;;;;5.07;4.18;;;;;;;18.16;93.86;99661.47;5125797;27;20095;-64
2023/05/27 01:40:55;;;;;;;4.93;4.07;;;;;;;18.16;94.10;99666.00;5122850;27;20035;-64
2023/05/27 01:43:21;;;;;;;5.15;4.10;;;;;;;18.12;93.93;99664.78;5122173;27;20078;-64
2023/05/27 01:45:47;;;;;;;7.05;4.32;;;;;;;18.13;93.61;99672.59;5127101;27;20325;-64
2023/05/27 01:48:13;;;;;;;4.70;4.30;;;;;;;18.13;93.53;99663.75;5124492;27;20028;-64
2023/05/27 01:50:38;;;;;;;6.35;4.03;;;;;;;18.13;93.71;99661.06;5123972;27;20524;-64
2023/05/27 01:53:06;;;;;;;7.28;4.22;;;;;;;18.10;93.27;99659.63;5122723;27;20103;-64
2023/05/27 01:55:31;;;;;;;4.90;4.40;;;;;;;18.10;93.63;99653.44;5124159;27;20052;-64
2023/05/27 01:57:57;;;;;;;4.65;4.03;;;;;;;18.09;93.79;99658.00;5125198;27;20031;-64
2023/05/27 02:00:24;;;;;;;4.97;3.67;;;;;;;18.12;93.59;99651.38;5126259;27;20111;-64
2023/05/27 02:02:49;;;;;;;5.28;4.05;;;;;;;18.11;93.49;99657.78;5124276;27;20317;-64
2023/05/27 02:05:15;;;;;;;6.10;3.92;;;;;;;18.14;93.11;99655.50;5122695;27;20045;-64
2023/05/27 02:07:41;;;;;;;4.60;4.10;;;;;;;18.11;93.19;99644.38;5122695;27;20321;-64
2023/05/27 02:10:07;;;;;;;6.95;4.30;;;;;;;18.08;93.02;99651.00;5121651;27;20035;-64
2023/05/27 02:12:32;;;;;;;3.85;3.53;;;;;;;18.00;93.80;99650.41;5123182;27;20034;-64
2023/05/27 02:14:58;;;;;;;5.43;4.05;;;;;;;18.01;93.36;99635.97;5121161;27;20245;-64
2023/05/27 02:17:24;;;;;;;4.82;4.25;;;;;;;18.12;92.87;99638.81;5121021;27;20301;-64
2023/05/27 02:19:50;;;;;;;4.80;4.30;;;;;;;18.10;92.95;99638.19;5121613;27;20302;-64
2023/05/27 02:22:16;;;;;;;6.50;4.18;;;;;;;18.10;92.37;99635.53;5121666;27;20035;-64
2023/05/27 02:24:41;;;;;;;4.60;3.75;;;;;;;18.09;92.49;99639.22;5126560;27;20242;-64
2023/05/27 02:27:07;;;;;;;5.00;4.13;;;;;;;18.14;92.62;99635.91;5123527;27;20076;-64
2023/05/27 02:29:32;;;;;;;5.05;4.00;;;;;;;18.13;92.46;99628.91;5121693;27;20080;-64
2023/05/27 02:31:58;;;;;;;7.28;3.95;;;;;;;18.09;92.44;99636.56;5125889;27;20083;-64
2023/05/27 02:34:23;;;;;;;4.85;3.83;;;;;;;18.07;92.76;99632.44;5122390;27;20104;-64
2023/05/27 02:36:49;;;;;;;5.90;3.88;;;;;;;18.06;92.80;99628.94;5125103;27;20321;-64
2023/05/27 02:39:14;;;;;;;5.22;4.28;;;;;;;18.02;92.38;99634.94;5122584;27;20036;-64
2023/05/27 02:41:40;;;;;;;5.07;4.38;;;;;;;18.02;92.30;99635.75;5124990;27;20192;-64
2023/05/27 02:44:05;;;;;;;6.80;3.90;;;;;;;18.05;92.30;99642.56;5121664;27;20032;-64
2023/05/27 02:46:31;;;;;;;4.93;3.90;;;;;;;18.10;92.28;99635.53;5122388;27;20286;-64
2023/05/27 02:48:56;;;;;;;4.30;3.75;;;;;;;18.17;91.76;99648.88;5123780;27;20292;-64
2023/05/27 02:51:22;;;;;;;7.18;4.35;;;;;;;18.17;91.24;99651.56;5123683;27;20104;-64
2023/05/27 02:53:48;;;;;;;4.95;3.92;;;;;;;18.17;91.06;99647.03;5124042;27;20343;-64
2023/05/27 02:56:13;;;;;;;7.20;4.72;;;;;;;18.23;90.81;99660.59;5124492;27;20173;-64
2023/05/27 02:58:39;;;;;;;5.72;3.90;;;;;;;18.28;90.57;99663.47;5121604;27;20027;-64
2023/05/27 03:01:04;;;;;;;4.80;3.75;;;;;;;18.22;90.37;99659.78;5121304;27;20037;-64
2023/05/27 03:03:30;;;;;;;5.70;3.80;;;;;;;18.14;90.76;99663.53;5122746;27;20032;-64
2023/05/27 03:05:56;;;;;;;4.63;3.80;;;;;;;18.10;91.19;99669.53;5122327;27;20382;-64
2023/05/27 03:08:21;;;;;;;4.38;3.53;;;;;;;18.10;91.39;99667.69;5123071;27;20429;-64
2023/05/27 03:10:46;;;;;;;4.60;3.70;;;;;;;18.10;91.39;99666.84;5124872;27;20067;-64
2023/05/27 03:13:13;;;;;;;5.43;3.78;;;;;;;18.11;91.10;99661.28;5130807;27;20042;-64
2023/05/27 03:15:39;;;;;;;5.10;4.00;;;;;;;18.19;91.36;99665.56;5121341;27;20032;-64
2023/05/27 03:18:04;;;;;;;3.55;3.20;;;;;;;18.28;90.69;99663.47;5122984;27;20084;-64
2023/05/27 03:20:30;;;;;;;4.35;3.30;;;;;;;18.28;90.45;99671.50;5125331;27;20160;-64
2023/05/27 03:22:56;;;;;;;3.53;2.83;;;;;;;18.24;90.19;99665.75;5126230;27;20049;-64
2023/05/27 03:25:21;;;;;;;3.83;3.47;;;;;;;18.23;90.27;99674.00;5123106;27;20223;-64
2023/05/27 03:27:47;;;;;;;5.05;3.20;;;;;;;18.33;89.85;99677.06;5121333;27;20031;-64
2023/05/27 03:30:12;;;;;;;6.60;3.38;;;;;;;18.38;89.47;99670.00;5119777;27;20047;-64
2023/05/27 03:32:38;;;;;;;5.10;3.80;;;;;;;18.37;90.07;99678.28;5123517;27;20027;-64
2023/05/27 03:35:03;;;;;;;4.88;3.85;;;;;;;18.40;89.71;99677.84;5124357;27;20031;-64
2023/05/27 03:37:29;;;;;;;5.72;3.70;;;;;;;18.41;89.21;99671.44;5121302;27;20035;-64
2023/05/27 03:39:55;;;;;;;4.72;3.70;;;;;;;18.41;89.19;99674.94;5123992;28;20038;-64
2023/05/27 03:42:20;;;;;;;4.95;3.95;;;;;;;18.42;89.43;99676.59;5121840;28;20035;-64
2023/05/27 03:44:46;;;;;;;4.00;3.28;;;;;;;18.43;89.26;99680.09;5121870;28;20210;-64
2023/05/27 03:47:11;;;;;;;5.43;4.00;;;;;;;18.43;89.24;99683.59;5119678;28;20089;-64
2023/05/27 03:49:37;;;;;;;4.47;3.90;;;;;;;18.26;90.05;99681.63;5124295;28;20110;-64
2023/05/27 03:52:02;;;;;;;4.85;3.58;;;;;;;18.19;90.06;99682.47;5120629;28;20028;-64
2023/05/27 03:54:28;;;;;;;4.18;3.40;;;;;;;18.19;90.51;99687.84;5124785;28;20054;-64
2023/05/27 03:56:53;;;;;;;3.65;3.22;;;;;;;18.35;89.06;99686.53;5124443;28;20296;-64
2023/05/27 03:59:18;;;;;;;3.65;2.88;;;;;;;18.30;89.15;99697.06;5122598;28;20032;-64
2023/05/27 04:01:44;;;;;;;4.00;2.80;;;;;;;18.40;88.51;99699.28;5120688;28;20044;-64
2023/05/27 04:04:10;;;;;;;4.68;3.15;;;;;;;18.43;88.19;99694.31;5118954;28;20233;-64
2023/05/27 04:06:35;;;;;;;5.65;3.20;;;;;;;18.54;88.07;99706.22;5125478;28;20039;-64
2023/05/27 04:09:03;;;;;;;4.20;3.20;;;;;;;18.55;87.69;99705.19;5121968;28;20049;-64
2023/05/27 04:11:31;;;;;;;5.70;3.55;;;;;;;18.62;87.39;99706.00;5125026;27;20028;-64
2023/05/27 04:13:56;;;;;;;3.15;2.80;;;;;;;18.55;87.56;99702.50;5125316;27;20101;-64
2023/05/27 04:16:24;;;;;;;4.97;2.95;;;;;;;18.54;88.26;99700.88;5125454;27;20379;-64
2023/05/27 04:18:51;;;;;;;3.17;2.78;;;;;;;18.60;88.48;99700.00;5125146;27;20042;-64
2023/05/27 04:21:20;;;;;;;4.30;3.00;;;;;;;18.63;88.15;99696.09;5128560;27;20236;-64
2023/05/27 04:23:45;;;;;;;4.22;3.00;;;;;;;18.63;88.71;99698.78;5127311;27;20039;-64
2023/05/27 04:26:11;;;;;;;4.63;3.40;;;;;;;18.79;88.12;99701.81;5127766;27;20080;-64
2023/05/27 04:28:38;;;;;;;6.78;3.88;;;;;;;18.81;88.66;99709.63;5125457;27;20222;-64
2023/05/27 04:31:04;;;;;;;4.43;3.50;;;;;;;18.72;88.74;99713.59;5125346;27;20273;-64
2023/05/27 04:33:30;;;;;;;4.45;3.30;;;;;;;18.71;89.48;99711.94;5124437;27;20038;-64
2023/05/27 04:35:55;;;;;;;4.80;4.00;;;;;;;18.64;89.29;99719.19;5128135;27;20039;-64
2023/05/27 04:38:21;;;;;;;5.22;3.28;;;;;;;18.69;89.10;99717.53;5127656;27;20248;-64
2023/05/27 04:40:52;;;;;;;5.78;3.47;;;;;;;18.89;88.40;99714.75;5125508;27;20050;-64
2023/05/27 04:43:18;;;;;;;4.15;3.30;;;;;;;18.87;88.07;99714.13;5126219;27;20047;-64
2023/05/27 04:45:44;;;;;;;4.88;3.50;;;;;;;18.97;87.89;99713.66;5128640;27;20051;-64
2023/05/27 04:48:10;;;;;;;4.95;3.08;;;;;;;19.01;87.27;99714.88;5126695;27;20032;-64
2023/05/27 04:50:36;;;;;;;3.85;2.95;;;;;;;19.24;87.58;99707.06;5127152;27;20096;-64
2023/05/27 04:53:02;;;;;;;4.90;3.25;;;;;;;19.57;86.58;99709.47;5125113;27;20339;-64
2023/05/27 04:55:28;;;;;;;4.65;3.22;;;;;;;19.76;83.07;99705.78;5123194;27;20452;-64
2023/05/27 04:57:53;;;;;;;8.25;3.70;;;;;;;19.96;82.17;99712.81;5124716;27;20035;-65
2023/05/27 05:00:34;;;;;;;5.32;3.38;;;;;;;20.06;81.28;99713.94;5127467;27;20031;-65
2023/05/27 05:03:01;;;;;;;3.65;3.17;;;;;;;20.02;79.83;99714.63;5126062;27;20023;-65
2023/05/27 05:05:26;;;;;;;4.22;3.33;;;;;;;20.18;79.82;99708.63;5124079;27;20039;-65
2023/05/27 05:07:52;;;;;;;4.85;3.10;;;;;;;20.40;78.19;99715.22;5126805;27;20324;-65
2023/05/27 05:10:18;;;;;;;3.58;2.75;;;;;;;20.43;76.59;99715.81;5126718;27;20095;-65
2023/05/27 05:12:43;;;;;;;4.43;2.92;;;;;;;20.42;76.40;99722.22;5122665;27;20318;-64
2023/05/27 05:15:09;;;;;;;5.05;3.05;;;;;;;20.47;77.21;99723.19;5125841;27;20335;-65
2023/05/27 05:17:34;;;;;;;4.47;3.20;;;;;;;20.40;77.12;99707.16;5125116;27;20192;-65
2023/05/27 05:20:00;;;;;;;3.45;3.03;;;;;;;20.43;77.69;99713.94;5127196;27;20027;-65
2023/05/27 05:22:27;;;;;;;3.58;3.28;;;;;;;20.46;78.12;99718.88;5125035;27;20098;-65
2023/05/27 05:24:53;;;;;;;3.30;3.00;;;;;;;20.77;76.45;99714.31;5122222;27;20101;-65
2023/05/27 05:27:18;;;;;;;3.35;2.85;;;;;;;21.06;74.91;99713.47;5127785;27;20035;-64
2023/05/27 05:29:44;;;;;;;6.55;2.88;;;;;;;21.09;73.61;99722.97;5125025;27;20042;-65
2023/05/27 05:32:13;;;;;;;5.10;3.10;;;;;;;20.95;72.08;99723.16;5123485;27;20034;-65
2023/05/27 05:34:39;;;;;;;4.80;3.95;;;;;;;20.86;73.09;99729.09;5125250;27;20035;-65
2023/05/27 05:37:04;;;;;;;5.50;4.03;;;;;;;20.66;72.95;99732.06;5123459;27;20319;-65
2023/05/27 05:39:30;;;;;;;5.03;4.63;;;;;;;20.68;73.64;99724.56;5126731;27;20136;-65
2023/05/27 05:41:57;;;;;;;6.65;6.05;;;;;;;20.46;74.92;99726.94;5127766;27;20122;-65
2023/05/27 05:44:23;;;;;;;6.30;5.70;;;;;;;20.43;74.90;99727.38;5132717;27;20070;-65
2023/05/27 05:46:48;;;;;;;35.83;30.50;;;;;;;20.41;75.36;99726.78;5135374;27;20027;-65
2023/05/27 05:49:14;;;;;;;62.03;46.95;;;;;;;20.33;74.84;99727.88;5135055;27;20070;-65
2023/05/27 05:51:39;;;;;;;20.38;17.48;;;;;;;20.40;75.66;99730.53;5141641;27;20038;-65
2023/05/27 05:54:05;;;;;;;21.67;17.52;;;;;;;20.29;76.17;99734.75;5138937;27;20035;-65
2023/05/27 05:56:30;;;;;;;76.63;63.00;;;;;;;20.27;77.87;99731.47;5138295;27;20088;-65
2023/05/27 05:58:55;;;;;;;24.35;21.77;;;;;;;20.22;77.91;99741.28;5138767;27;20035;-65
2023/05/27 06:01:21;;;;;;;12.80;11.52;;;;;;;20.24;77.56;99741.88;5139052;27;20033;-65
2023/05/27 06:03:47;;;;;;;15.88;10.73;;;;;;;20.32;77.44;99746.94;5139543;27;20075;-65
2023/05/27 06:06:12;;;;;;;27.25;24.42;;;;;;;20.22;78.88;99760.09;5138761;27;20202;-65
2023/05/27 06:08:37;;;;;;;35.80;30.20;;;;;;;19.95;80.64;99760.38;5140091;27;20035;-65
2023/05/27 06:11:03;;;;;;;24.42;21.23;;;;;;;19.91;80.34;99751.13;5139490;27;20073;-65
2023/05/27 06:13:28;;;;;;;30.48;23.73;;;;;;;19.90;81.11;99749.47;5139756;27;20107;-65
2023/05/27 06:15:55;;;;;;;96.72;63.53;;;;;;;19.88;82.65;99753.44;5139407;27;20031;-65
2023/05/27 06:18:21;;;;;;;47.10;35.25;;;;;;;19.82;83.41;99759.69;5139795;27;20245;-65
2023/05/27 06:20:46;;;;;;;53.72;40.28;;;;;;;19.76;83.33;99756.81;5139023;27;20469;-65
2023/05/27 06:23:12;;;;;;;45.22;34.55;;;;;;;19.88;83.05;99758.81;5138492;27;20127;-65
2023/05/27 06:25:37;;;;;;;59.33;45.15;;;;;;;19.80;83.30;99764.47;5137869;27;20370;-65
2023/05/27 06:28:03;;;;;;;171.90;124.88;;;;;;;19.92;82.98;99765.38;5139117;27;20031;-65
2023/05/27 06:30:28;;;;;;;62.83;48.58;;;;;;;19.84;83.42;99769.16;5138836;27;20039;-65
2023/05/27 06:32:53;;;;;;;156.43;128.18;;;;;;;19.88;83.73;99769.56;5138155;27;20038;-65
2023/05/27 06:35:19;;;;;;;58.00;50.95;;;;;;;20.00;83.05;99776.66;5138853;27;20066;-65
2023/05/27 06:37:44;;;;;;;37.55;33.67;;;;;;;20.00;82.23;99770.47;5138946;27;20359;-65
2023/05/27 06:40:10;;;;;;;9.68;8.18;;;;;;;20.08;81.18;99765.63;5138956;27;20039;-65
2023/05/27 06:42:36;;;;;;;5.70;3.92;;;;;;;20.07;80.43;99763.16;5134323;27;20324;-65
2023/05/27 06:45:02;;;;;;;6.22;5.07;;;;;;;20.14;80.83;99769.28;5132456;27;20430;-65
2023/05/27 06:47:28;;;;;;;9.13;6.00;;;;;;;20.11;82.10;99766.22;5133253;27;20031;-65
2023/05/27 06:49:53;;;;;;;6.20;5.57;;;;;;;19.92;82.44;99763.50;5131647;27;20230;-65
2023/05/27 06:52:19;;;;;;;5.13;4.18;;;;;;;20.01;81.86;99764.88;5133956;27;20034;-65
2023/05/27 06:54:45;;;;;;;5.63;4.90;;;;;;;19.96;81.77;99772.78;5134345;27;20237;-65
2023/05/27 06:57:11;;;;;;;7.85;6.05;;;;;;;20.06;81.70;99773.06;5134084;27;20038;-65
2023/05/27 06:59:36;;;;;;;5.20;4.70;;;;;;;20.12;81.39;99771.38;5135037;27;20039;-65
2023/05/27 07:02:02;;;;;;;8.23;6.28;;;;;;;20.10;82.61;99770.75;5133439;27;20069;-65
2023/05/27 07:04:28;;;;;;;7.15;5.75;;;;;;;20.19;82.63;99780.19;5132660;27;20237;-65
2023/05/27 07:06:53;;;;;;;10.68;9.88;;;;;;;19.96;82.90;99780.00;5133939;27;20044;-65
2023/05/27 07:09:18;;;;;;;26.20;24.00;;;;;;;19.95;83.35;99779.19;5131899;27;20043;-65
2023/05/27 07:11:44;;;;;;;12.85;11.85;;;;;;;19.97;83.62;99779.78;5134027;27;20037;-65
2023/05/27 07:14:10;;;;;;;10.57;6.15;;;;;;;19.93;84.01;99781.28;5132527;27;20237;-65
2023/05/27 07:16:36;;;;;;;8.43;6.95;;;;;;;20.03;84.19;99781.59;5133718;27;20031;-65
2023/05/27 07:19:01;;;;;;;12.82;6.40;;;;;;;20.13;83.77;99778.38;5130556;27;20450;-65
2023/05/27 07:21:27;;;;;;;6.38;5.78;;;;;;;20.09;84.12;99783.38;5132650;27;20055;-65
2023/05/27 07:23:52;;;;;;;7.22;6.53;;;;;;;20.20;83.53;99779.13;5131518;27;20053;-65
2023/05/27 07:26:17;;;;;;;6.72;3.92;;;;;;;20.24;84.89;99774.94;5134206;27;20035;-65
2023/05/27 07:28:44;;;;;;;6.50;3.85;;;;;;;20.26;86.12;99772.03;5132453;27;20088;-65
2023/05/27 07:31:09;;;;;;;5.22;3.50;;;;;;;20.31;85.58;99775.69;5133422;27;20037;-65
2023/05/27 07:33:35;;;;;;;52.38;28.75;;;;;;;20.40;84.54;99771.69;5131590;27;20030;-65
2023/05/27 07:36:00;;;;;;;111.32;57.97;;;;;;;20.52;84.26;99774.44;5133217;27;20540;-65
2023/05/27 07:38:26;;;;;;;142.23;67.30;;;;;;;20.61;83.55;99777.66;5133656;27;20272;-65
2023/05/27 07:40:51;;;;;;;77.35;34.05;;;;;;;20.67;82.93;99771.34;5132059;27;20038;-65
2023/05/27 07:43:17;;;;;;;79.85;36.80;;;;;;;20.79;82.46;99774.09;5131750;27;20039;-65
2023/05/27 07:45:42;;;;;;;27.52;13.65;;;;;;;20.88;82.79;99778.16;5129945;27;20375;-65
2023/05/27 07:48:08;;;;;;;11.85;4.53;;;;;;;20.90;79.73;99778.75;5132860;27;20343;-65
2023/05/27 07:50:33;;;;;;;7.30;4.22;;;;;;;20.90;80.14;99774.19;5131009;27;20045;-65
2023/05/27 07:52:59;;;;;;;6.22;4.78;;;;;;;20.85;80.90;99774.03;5133040;27;20030;-65
2023/05/27 07:55:24;;;;;;;6.70;3.55;;;;;;;20.87;79.77;99780.03;5131864;27;20035;-66
2023/05/27 07:57:50;;;;;;;5.82;3.60;;;;;;;20.89;79.52;99777.91;5133678;27;20034;-65
2023/05/27 08:00:15;;;;;;;6.25;3.45;;;;;;;20.89;79.10;99782.47;5131338;27;20577;-65
2023/05/27 08:02:43;;;;;;;9.57;8.43;;;;;;;20.93;78.19;99787.19;5133411;27;20039;-65
2023/05/27 08:05:08;;;;;;;49.05;26.50;;;;;;;20.97;77.91;99791.06;5133671;27;20479;-65
2023/05/27 08:07:34;;;;;;;40.42;21.58;;;;;;;20.95;76.64;99792.34;5132690;27;20034;-65
2023/05/27 08:09:59;;;;;;;16.65;8.70;;;;;;;20.97;76.50;99792.94;5132523;27;20349;-65
2023/05/27 08:12:25;;;;;;;32.40;15.93;;;;;;;21.00;76.92;99793.28;5131232;27;20056;-65
2023/05/27 08:14:52;;;;;;;7.85;4.28;;;;;;;21.10;76.29;99800.00;5132224;27;20039;-65
2023/05/27 08:17:17;;;;;;;4.35;3.10;;;;;;;21.21;76.69;99801.91;5131403;27;20034;-65
2023/05/27 08:19:42;;;;;;;4.65;3.15;;;;;;;21.25;77.24;99795.84;5133005;27;20043;-65
2023/05/27 08:22:11;;;;;;;4.60;3.17;;;;;;;21.27;74.75;99796.44;5129808;27;20019;-65
2023/05/27 08:24:36;;;;;;;6.22;3.17;;;;;;;21.29;75.59;99797.03;5131561;27;20039;-65
2023/05/27 08:27:02;;;;;;;6.20;3.22;;;;;;;21.32;75.01;99801.16;5132301;27;20046;-65
2023/05/27 08:29:30;;;;;;;3.30;2.92;;;;;;;21.27;74.02;99796.44;5132461;27;20049;-65
2023/05/27 08:31:56;;;;;;;3.33;2.83;;;;;;;21.28;74.43;99798.09;5132475;27;20066;-65
2023/05/27 08:34:22;;;;;;;5.03;2.78;;;;;;;21.32;74.11;99807.34;5129939;27;20226;-65
2023/05/27 08:36:47;;;;;;;3.95;2.90;;;;;;;21.37;73.87;99811.22;5133577;27;20027;-65
2023/05/27 08:39:13;;;;;;;5.07;3.60;;;;;;;21.42;74.79;99811.34;5130336;27;20272;-65
2023/05/27 08:41:39;;;;;;;3.72;3.20;;;;;;;21.45;73.03;99810.88;5133842;27;20031;-65
2023/05/27 08:44:05;;;;;;;7.13;3.75;;;;;;;21.48;73.33;99805.03;5132391;27;20230;-65
2023/05/27 08:46:32;;;;;;;5.95;3.85;;;;;;;21.53;73.15;99810.56;5131472;27;20053;-65
2023/05/27 08:48:58;;;;;;;4.30;3.22;;;;;;;21.55;72.69;99806.56;5130350;27;20115;-67
2023/05/27 08:51:24;;;;;;;6.20;3.20;;;;;;;21.56;71.87;99802.00;5131671;27;20058;-64
2023/05/27 08:53:49;;;;;;;5.38;3.78;;;;;;;21.64;71.61;99805.19;5132280;27;20115;-66
2023/05/27 08:56:18;;;;;;;6.68;3.70;;;;;;;21.67;72.64;99812.81;5131103;27;20031;-64
2023/05/27 08:58:43;;;;;;;11.02;4.10;;;;;;;21.76;72.38;99807.88;5135296;27;20035;-68
2023/05/27 09:01:09;;;;;;;3.95;3.17;;;;;;;21.60;70.88;99804.00;5134497;27;20038;-64
2023/05/27 09:03:35;;;;;;;5.47;4.22;;;;;;;21.54;72.93;99809.50;5134510;27;20118;-64
2023/05/27 09:06:03;;;;;;;7.03;4.05;;;;;;;21.61;73.49;99811.03;5134785;27;20032;-64
2023/05/27 09:08:29;;;;;;;4.50;3.67;;;;;;;21.65;73.20;99809.50;5136142;27;20027;-64
2023/05/27 09:10:55;;;;;;;9.23;4.28;;;;;;;21.63;73.64;99803.53;5136285;27;20046;-65
2023/05/27 09:13:30;;;;;;;4.53;3.30;;;;;;;21.60;73.14;99804.00;5135243;27;20243;-64
2023/05/27 09:16:04;;;;;;;9.27;6.60;;;;;;;21.44;73.24;99802.00;5135604;27;20305;-64
2023/05/27 09:18:32;;;;;;;6.00;4.88;;;;;;;21.52;73.93;99798.97;5135528;27;20565;-64
2023/05/27 09:20:57;;;;;;;11.07;10.02;;;;;;;21.55;75.16;99803.88;5134608;27;20389;-64
2023/05/27 09:23:23;;;;;;;7.25;4.82;;;;;;;21.57;75.97;99800.94;5133768;27;20048;-64
2023/05/27 09:25:49;;;;;;;7.82;4.20;;;;;;;21.59;75.58;99796.16;5134306;27;20042;-64
2023/05/27 09:28:23;;;;;;;14.13;8.35;;;;;;;21.60;74.58;99801.31;5135765;27;20040;-64
2023/05/27 09:30:59;;;;;;;20.48;10.68;;;;;;;21.59;74.96;99796.16;5133297;27;20305;-64
2023/05/27 09:33:26;;;;;;;12.45;7.15;;;;;;;21.65;75.03;99795.22;5134370;27;20062;-64
2023/05/27 09:35:51;;;;;;;7.68;4.78;;;;;;;21.64;75.32;99794.41;5134490;27;20080;-64
2023/05/27 09:38:17;;;;;;;6.78;4.00;;;;;;;21.68;74.64;99795.56;5131706;27;20321;-64
2023/05/27 09:40:44;;;;;;;6.32;3.55;;;;;;;21.70;74.41;99789.97;5135248;27;20096;-64
2023/05/27 09:43:15;;;;;;;8.40;4.38;;;;;;;21.60;76.02;99787.84;5134006;27;20133;-64
2023/05/27 09:45:40;;;;;;;6.30;4.38;;;;;;;21.61;74.76;99792.16;5134750;27;20034;-64
2023/05/27 09:48:08;;;;;;;6.20;4.00;;;;;;;21.73;73.80;99783.28;5135749;27;20027;-65
2023/05/27 09:50:34;;;;;;;5.22;4.07;;;;;;;21.79;74.07;99785.84;5134873;27;20262;-64
2023/05/27 09:53:01;;;;;;;10.77;4.22;;;;;;;21.87;73.63;99782.03;5135773;27;20061;-64
2023/05/27 09:55:28;;;;;;;6.03;4.32;;;;;;;21.93;71.96;99783.78;5134589;27;20043;-64
2023/05/27 09:57:54;;;;;;;7.32;3.95;;;;;;;21.99;71.07;99780.13;5134536;27;20023;-64
2023/05/27 10:00:20;;;;;;;8.02;3.95;;;;;;;22.07;71.11;99779.00;5139617;27;20102;-64
2023/05/27 10:02:47;;;;;;;5.32;3.95;;;;;;;22.13;70.12;99773.47;5139455;27;20325;-65
2023/05/27 10:05:14;;;;;;;5.93;4.18;;;;;;;22.23;71.26;99784.47;5139004;27;20110;-64
2023/05/27 10:07:43;;;;;;;9.98;4.57;;;;;;;22.21;71.45;99778.50;5138752;27;20063;-65
2023/05/27 10:10:11;;;;;;;7.38;4.72;;;;;;;22.26;69.39;99775.91;5138526;27;20038;-65
2023/05/27 10:12:38;;;;;;;6.90;3.97;;;;;;;22.35;69.70;99767.47;5138143;27;20076;-64
2023/05/27 10:15:05;;;;;;;4.53;3.88;;;;;;;22.45;68.70;99773.06;5139303;27;20145;-65
2023/05/27 10:17:48;;;;;;;5.25;3.70;;;;;;;22.56;68.79;99764.09;5138861;27;20031;-65
2023/05/27 10:20:26;;;;;;;4.45;3.75;;;;;;;22.65;68.75;99768.06;5138033;27;20038;-65
2023/05/27 10:22:52;;;;;;;3.97;3.22;;;;;;;22.75;66.47;99767.44;5139219;27;20067;-65
2023/05/27 10:25:17;;;;;;;4.78;3.55;;;;;;;22.86;65.26;99762.03;5139505;27;20050;-65
2023/05/27 10:27:47;;;;;;;4.05;3.15;;;;;;;22.93;62.46;99753.81;5138680;27;20102;-65
2023/05/27 10:30:14;;;;;;;4.45;2.75;;;;;;;23.00;62.16;99753.66;5138745;27;20100;-65
2023/05/27 10:32:58;;;;;;;4.07;2.92;;;;;;;23.03;63.23;99748.59;5139274;27;20079;-65
2023/05/27 10:35:27;;;;;;;4.30;3.05;;;;;;;23.16;61.10;99750.16;5138628;27;20058;-65
2023/05/27 10:37:53;;;;;;;2.75;2.55;;;;;;;23.19;60.34;99746.97;5139014;27;20376;-65
2023/05/27 10:40:25;;;;;;;3.80;2.72;;;;;;;23.28;59.95;99745.50;5139140;27;20037;-65
2023/05/27 10:43:02;;;;;;;4.10;2.70;;;;;;;23.37;59.10;99737.81;5138502;27;20072;-65
2023/05/27 10:45:34;;;;;;;6.78;4.93;;;;;;;23.41;56.66;99736.25;5139269;27;20043;-65
2023/05/27 10:48:00;;;;;;;3.78;2.67;;;;;;;23.53;57.80;99735.09;5138764;27;20023;-65
2023/05/27 10:50:35;;;;;;;9.57;8.57;;;;;;;23.63;57.54;99726.38;5138523;27;20043;-65
2023/05/27 10:53:01;;;;;;;7.10;6.45;;;;;;;23.83;55.93;99723.94;5138923;27;20989;-65
2023/05/27 10:55:27;;;;;;;4.72;2.90;;;;;;;24.00;56.30;99717.72;5138665;27;20031;-65
2023/05/27 10:57:52;;;;;;;18.25;16.42;;;;;;;24.10;55.01;99725.97;5137413;27;20027;-65
2023/05/27 11:00:20;;;;;;;4.32;3.92;;;;;;;24.17;53.36;99724.69;5138377;27;20039;-65
2023/05/27 11:02:46;;;;;;;2.47;2.28;;;;;;;24.20;50.35;99715.25;5138164;27;20039;-64
2023/05/27 11:05:15;;;;;;;4.57;2.70;;;;;;;24.23;51.08;99714.75;5138562;27;20051;-65
2023/05/27 11:07:41;;;;;;;3.13;2.28;;;;;;;24.20;51.30;99709.84;5138312;27;20031;-65
2023/05/27 11:10:07;;;;;;;4.28;3.72;;;;;;;24.12;51.88;99713.00;5137893;27;20046;-65
2023/05/27 11:12:33;;;;;;;6.45;5.95;;;;;;;23.99;51.83;99714.19;5136877;27;20434;-65
2023/05/27 11:14:58;;;;;;;3.50;2.35;;;;;;;24.05;52.29;99712.38;5137363;27;20214;-65
2023/05/27 11:17:27;;;;;;;3.22;2.25;;;;;;;24.11;51.34;99708.66;5137345;27;20232;-65
2023/05/27 11:19:54;;;;;;;4.63;3.08;;;;;;;24.05;53.91;99706.97;5136053;27;20271;-65
2023/05/27 11:22:19;;;;;;;3.22;2.80;;;;;;;24.00;51.57;99705.00;5136938;27;20030;-65
2023/05/27 11:25:02;;;;;;;2.63;2.38;;;;;;;23.97;53.55;99702.81;5137087;27;20039;-65